Tiempo atmosférico en la estación meteorológica de San Pedro Manrique, Soria (1096 m.)



Fecha
DESCASC
Temp. máxima en grados centígrados (hora)
DESCASC
Temp. mínima en grados centígrados (hora)
DESCASC
Temp. media en grados centígrados
DESCASC
Racha de viento máxima en m/sg (hora)
DESCASC
Velocidad máxima media en intervalos de 10 minutos(hora)
DESCASC
Precipitaciones diarias en mm
DESCASC
Precipitaciones de 00:00 a 06:00 en mm
DESCASC
Precipitaciones de 06:00 a 12:00 en mm
DESCASC
Precipitaciones de 12:00 a 18:00 en mm
DESCASC
Precipitaciones de 18:00 a 24:00 en mm
DESCASC
17-02-2019 14.2 (15:10) -1.3 (23:59) 6.4 10 (12:50) 6.39 (12:40) 0 0 0 0 0
16-02-2019 13.3 (14:20) -5.5 (07:40) 3.9 7.22 (15:10) 5 (16:40) 0 0 0 0 0
15-02-2019 12.1 (13:50) -3.6 (08:10) 4.3 6.39 (15:30) 4.17 (15:40) 0 0 0 0 0
14-02-2019 13 (14:30) -4 (-00:0) 4.5 6.94 (13:30) 4.72 (13:20) 0 0 0 0 0
13-02-2019 13.3 (13:40) -4.6 (-00:0) 4.4 5.83 (14:10) 4.72 (14:30) 0 0 0 0 0
12-02-2019 12.1 (14:20) -4 (-00:0) 4.1 6.39 (00:20) 3.33 (16:50) 0 0 0 0 0
11-02-2019 5.6 (15:20) 0.3 (00:00) 2.9 11.39 (04:30) 7.22 (05:50) 0 0 0 0 0
10-02-2019 11.2 (14:40) 2.7 (00:00) 6.9 15.83 (14:20) 9.72 (12:40) 0.2 0 0 0 0.2
09-02-2019 11.1 (14:30) -1 (-00:0) 5.1 9.72 (16:10) 5.83 (15:20) 0 0 0 0 0
08-02-2019 13.2 (15:40) -2 (-00:0) 5.6 10.56 (15:10) 5.56 (14:50) 0 0 0 0 0
07-02-2019 11.6 (14:40) -2.1 (-00:0) 4.8 6.67 (15:50) 3.89 (16:10) 0 0 0 0 0
06-02-2019 15 (15:10) -3.3 (07:50) 5.9 7.78 (16:20) 4.44 (16:20) 0 0 0 0 0
05-02-2019 12.2 (14:00) -0.5 (23:59) 5.8 6.11 (12:40) 3.89 (04:10) 0 0 0 0 0
04-02-2019 8.5 (15:20) -4.4 (-00:0) 2 7.78 (05:20) 5.28 (05:00) 0.4 0 0.4 0 0
03-02-2019 0.7 (16:30) -3.1 (-00:0) -1.2 21.39 (12:50) 12.22 (09:40) 1.4 0 0 1.4 0
02-02-2019 0.9 (00:00) -2.4 (-00:0) -0.8 24.44 (14:40) 11.67 (12:40) 2.8 0 0.8 2 0
01-02-2019 7.6 (00:00) -0.6 (-00:0) 3.5 21.94 (10:50) 13.61 (10:50) 5.6 4.8 0 0.8 0
31-01-2019 10.3 (13:40) 1.4 (00:00) 5.9 21.11 (18:50) 12.5 (18:50) 5.2 1.4 0.6 0 3.2
30-01-2019 5.2 (13:40) 0.5 (00:00) 2.8 10.56 (07:10) 6.67 (07:10) 0.6 0 0 0 0.6
29-01-2019 8.3 (15:40) -0.3 (00:00) 4 14.72 (16:00) 8.89 (12:20) 1 0 0 0.2 0.8
28-01-2019 5.9 (10:30) 1.6 (00:00) 3.8 23.06 (01:20) 13.61 (18:20) 0.6 0 0 0.6 0
27-01-2019 4.8 (12:20) -1.4 (-00:0) 1.7 20.28 (12:20) 12.78 (12:10) 0.2 0 0.2 0 0
26-01-2019 16.1 (15:00) -2.7 (-00:0) 6.7 9.17 (01:00) 3.89 (01:50) 0 0 0 0 0
25-01-2019 6.4 (11:20) 4.4 (00:00) 5.4 23.06 (02:20) 13.33 (02:20) 0 0 0 0 0
24-01-2019 4.6 (23:59) 0.4 (00:00) 2.5 18.61 (21:40) 10.28 (22:00) 15 7.6 4.4 2.8 0.2
23-01-2019 4.8 (11:40) 1.1 (00:00) 3 18.89 (20:10) 11.39 (20:10) 13 1.8 0.6 4.6 6
22-01-2019 3.6 (12:20) -0.7 (-00:0) 1.4 10.56 (14:50) 6.39 (01:40) 0.6 0 0 0.6 0
21-01-2019 2.6 (14:40) -0.1 (00:00) 1.2 13.33 (00:40) 6.39 (12:40) 0 0 0 0 0
20-01-2019 3.4 (14:10) 0.4 (00:00) 1.9 12.5 (15:50) 7.5 (15:50) 1.8 0.8 0.8 0.2 0
19-01-2019 5.1 (12:10) -4.3 (-00:0) 0.4 9.17 (12:40) 5.28 (12:40) 0.4 0 0 0 0.4

Gráficas

Temp. máximas Temp. mínimas Temp. medias Precipitaciones Rachas de viento máximas Velocidades máximas media en intervalos de 10 minutos

Datos horarios

Fecha y hora oficial Temperatura (ºC) Velocidad del viento (km/h) Dirección del viento Racha (km/h) Dirección de racha Precipitación (mm) Presión (hPa) Tendencia (hPa) Humedad (%)
2019-02-17 23:00:00 -0.4 0 Calma 4 Este 0 -- -- 65
2019-02-17 22:00:00 1 0 Calma 4 Este 0 -- -- 61
2019-02-17 21:00:00 2.7 0 Calma 6 Sudeste 0 -- -- 56
2019-02-17 20:00:00 5.3 0 Calma 5 Norte 0 -- -- 46
2019-02-17 19:00:00 7.8 0 Calma 14 Sudeste 0 -- -- 39
2019-02-17 18:00:00 11.1 8 Sudeste 27 Sudeste 0 -- -- 32
2019-02-17 17:00:00 13.2 19 Sur 33 Sur 0 -- -- 25
2019-02-17 16:00:00 14.2 15 Sur 27 Sur 0 -- -- 24
2019-02-17 15:00:00 14.1 15 Sur 30 Sudeste 0 -- -- 22
2019-02-17 14:00:00 13.4 17 Sudeste 31 Sudeste 0 -- -- 26
2019-02-17 13:00:00 12.5 22 Sudeste 36 Sudeste 0 -- -- 25
2019-02-17 12:00:00 11.6 14 Sur 34 Sur 0 -- -- 22
2019-02-17 11:00:00 10.4 19 Sur 34 Sur 0 -- -- 21
2019-02-17 10:00:00 8.7 8 Sudoeste 21 Sudoeste 0 -- -- 23
2019-02-17 09:00:00 5.9 6 Sudoeste 17 Sur 0 -- -- 28
2019-02-17 08:00:00 4.1 4 Sur 14 Sur 0 -- -- 31
2019-02-17 07:00:00 5.2 4 Este 16 Sudeste 0 -- -- 30
2019-02-17 06:00:00 4.9 0 Calma 10 Norte 0 -- -- 32
2019-02-17 05:00:00 5 5 Sudeste 18 Sur 0 -- -- 30
2019-02-17 04:00:00 3.1 3 Sudeste 9 Sur 0 -- -- 39
2019-02-17 03:00:00 3.7 0 Calma 8 Sudeste 0 -- -- 42
2019-02-17 02:00:00 2.8 0 Calma 15 Sudeste 0 -- -- 50
2019-02-17 01:00:00 2.5 5 Sur 12 Sur 0 -- -- 54
2019-02-17 00:00:00 4.2 3 Sur 18 Sudeste 0 -- -- 50
2019-02-16 23:00:00 5 9 Sur 15 Sudeste 0 -- -- 49
2019-02-16 22:00:00 5.3 7 Noroeste 14 Sur 0 -- -- 61
2019-02-16 21:00:00 6 3 Sudeste 13 Sudeste 0 -- -- 65
2019-02-16 20:00:00 6.2 4 Sudeste 14 Sudeste 0 -- -- 68
2019-02-16 19:00:00 7.5 7 Sur 13 Sudeste 0 -- -- 63
2019-02-16 18:00:00 10.3 6 Sudeste 18 Sudeste 0 -- -- 56
2019-02-16 17:00:00 11.4 12 Sudeste 26 Sudeste 0 -- -- 52
2019-02-16 16:00:00 12.3 16 Sudeste 26 Sudeste 0 -- -- 51
2019-02-16 15:00:00 13.2 15 Sudeste 25 Sudeste 0 -- -- 45
2019-02-16 14:00:00 12.9 12 Sudeste 23 Sudeste 0 -- -- 46
2019-02-16 13:00:00 12.3 8 Sudeste 22 Sur 0 -- -- 48
2019-02-16 12:00:00 11.3 14 Sur 23 Sur 0 -- -- 51
2019-02-16 11:00:00 5.5 0 Calma 3 Este 0 -- -- 73
2019-02-16 10:00:00 0 0 Calma 3 Sudeste 0 -- -- 80
2019-02-16 09:00:00 -4.6 0 Calma 2 Sur 0 -- -- 84
2019-02-16 08:00:00 -5.5 0 Calma 2 Sur 0 -- -- 83
2019-02-16 07:00:00 -5.3 0 Calma 2 Sudeste 0 -- -- 83
2019-02-16 06:00:00 -5.3 0 Calma 2 Sudoeste 0 -- -- 81
2019-02-16 05:00:00 -5 0 Calma 4 Sudoeste 0 -- -- 81
2019-02-16 04:00:00 -4.7 0 Calma 2 Sudeste 0 -- -- 83
2019-02-16 03:00:00 -4.4 0 Calma 3 Sudoeste 0 -- -- 80
2019-02-16 02:00:00 -3.8 0 Calma 4 Sudoeste 0 -- -- 81
2019-02-16 01:00:00 -3.2 0 Calma 4 Sudoeste 0 -- -- 79
2019-02-16 00:00:00 -2.4 0 Calma 2 Sudeste 0 -- -- 77
2019-02-15 23:00:00 -1.4 0 Calma 2 Este 0 -- -- 79
2019-02-15 22:00:00 -0.2 0 Calma 2 Sur 0 -- -- 75
2019-02-15 21:00:00 1.6 0 Calma 3 Oeste 0 -- -- 71
2019-02-15 20:00:00 4.1 0 Calma 6 Norte 0 -- -- 69
2019-02-15 19:00:00 7.1 3 Noroeste 15 Nordeste 0 -- -- 59
2019-02-15 18:00:00 9.3 10 Nordeste 16 Nordeste 0 -- -- 51
2019-02-15 17:00:00 11 9 Nordeste 20 Norte 0 -- -- 48
2019-02-15 16:00:00 11.3 13 Nordeste 23 Norte 0 -- -- 50
2019-02-15 15:00:00 11.8 13 Nordeste 19 Nordeste 0 -- -- 51
2019-02-15 14:00:00 12.1 11 Nordeste 18 Nordeste 0 -- -- 49
2019-02-15 13:00:00 11.2 9 Nordeste 16 Nordeste 0 -- -- 48
2019-02-15 12:00:00 10.1 4 Norte 8 Nordeste 0 -- -- 48
2019-02-15 11:00:00 6 0 Calma 4 Sudeste 0 -- -- 64
2019-02-15 10:00:00 1.4 0 Calma 3 Sudeste 0 -- -- 77
2019-02-15 09:00:00 -2.8 3 Sudeste 4 Este 0 -- -- 84
2019-02-15 08:00:00 -3.4 0 Calma 2 Sur 0 -- -- 81
2019-02-15 07:00:00 -2.5 0 Calma 3 Oeste 0 -- -- 81
2019-02-15 06:00:00 -1.9 0 Calma 2 Oeste 0 -- -- 81
2019-02-15 05:00:00 -1 0 Calma 4 Sudoeste 0 -- -- 79
2019-02-15 04:00:00 -0.5 2 Sudoeste 4 Norte 0 -- -- 78
2019-02-15 03:00:00 -0.8 0 Calma 5 Este 0 -- -- 78
2019-02-15 02:00:00 -0.7 2 Sudoeste 4 Oeste 0 -- -- 80
2019-02-15 01:00:00 -1.2 0 Calma 2 Sudeste 0 -- -- 80
2019-02-15 00:00:00 -1 0 Calma 4 Sur 0 -- -- 79
2019-02-14 23:00:00 -0.5 0 Calma 4 Sudeste 0 -- -- 81
2019-02-14 22:00:00 0.6 0 Calma 0 Calma 0 -- -- 76
2019-02-14 21:00:00 2.1 0 Calma -- -- 0 -- -- 75
2019-02-14 20:00:00 4.8 0 Calma 10 Sur 0 -- -- 74
2019-02-14 19:00:00 6.3 5 Sur 18 Sudeste 0 -- -- 70
2019-02-14 18:00:00 8.8 11 Sudeste 21 Sur 0 -- -- 61
2019-02-14 17:00:00 10.8 11 Sudeste 22 Sudeste 0 -- -- 55
2019-02-14 16:00:00 12.1 15 Sudeste 24 Sudeste 0 -- -- 44
2019-02-14 15:00:00 12.9 12 Sudeste 21 Sudeste 0 -- -- 41
2019-02-14 14:00:00 12.3 13 Sudeste 25 Sudeste 0 -- -- 44
2019-02-14 13:00:00 11.7 14 Sudeste 22 Sudeste 0 -- -- 43
2019-02-14 12:00:00 11 11 Sudeste 19 Sudeste 0 -- -- 47
2019-02-14 11:00:00 6.3 2 Oeste 4 Oeste 0 -- -- 68
2019-02-14 10:00:00 1.1 0 Calma 4 Sudeste 0 -- -- 82
2019-02-14 09:00:00 -2.8 0 Calma 3 Sur 0 -- -- 88
2019-02-14 08:00:00 -3.6 0 Calma 4 Sudoeste 0 -- -- 86
2019-02-14 07:00:00 -3.8 0 Calma 3 Sur 0 -- -- 86
2019-02-14 06:00:00 -3.4 0 Calma 2 Sudoeste 0 -- -- 86
2019-02-14 05:00:00 -3.2 0 Calma 4 Sudoeste 0 -- -- 86
2019-02-14 04:00:00 -3 2 Sudeste 3 Sur 0 -- -- 85
2019-02-14 03:00:00 -2.5 0 Calma 4 Sur 0 -- -- 86
2019-02-14 02:00:00 -2.2 0 Calma 2 Sur 0 -- -- 85
2019-02-14 01:00:00 -1.5 0 Calma 2 Sur 0 -- -- 85
2019-02-14 00:00:00 -1.2 0 Calma 4 Sudeste 0 -- -- 83
2019-02-13 23:00:00 -0.4 0 Calma 3 Sur 0 -- -- 82
2019-02-13 22:00:00 0.8 0 Calma 6 Sudoeste 0 -- -- 81
2019-02-13 21:00:00 2.4 0 Calma 5 Norte 0 -- -- 77
2019-02-13 20:00:00 4.5 3 Noroeste 8 Nordeste 0 -- -- 73
2019-02-13 19:00:00 6.8 3 Nordeste 10 Nordeste 0 -- -- 67
2019-02-13 18:00:00 9.5 3 Nordeste 13 Nordeste 0 -- -- 57
2019-02-13 17:00:00 11.4 7 Este 18 Sudeste 0 -- -- 50
2019-02-13 16:00:00 13.1 12 Sudeste 21 Sudeste 0 -- -- 41
2019-02-13 15:00:00 12.9 13 Sudeste 21 Sudeste 0 -- -- 42
2019-02-13 14:00:00 13.3 12 Sudeste 20 Sudeste 0 -- -- 40
2019-02-13 13:00:00 12.8 12 Sudeste 19 Sudeste 0 -- -- 36
2019-02-13 12:00:00 10.2 2 Sur 5 Sudeste 0 -- -- 45
2019-02-13 11:00:00 4.7 0 Calma 4 Sudeste 0 -- -- 67
2019-02-13 10:00:00 0.4 0 Calma 4 Sudeste 0 -- -- 78
2019-02-13 09:00:00 -3.6 0 Calma 3 Sudeste 0 -- -- 86
2019-02-13 08:00:00 -4.6 0 Calma 3 Sudoeste 0 -- -- 84
2019-02-13 07:00:00 -4.4 0 Calma 3 Sudoeste 0 -- -- 84
2019-02-13 06:00:00 -4.1 0 Calma 3 Sudoeste 0 -- -- 84
2019-02-13 05:00:00 -4 0 Calma 2 Sudoeste 0 -- -- 84
2019-02-13 04:00:00 -3.5 0 Calma 3 Sur 0 -- -- 83
2019-02-13 03:00:00 -3.2 0 Calma 2 Sur 0 -- -- 83
2019-02-13 02:00:00 -2.7 0 Calma 5 Sur 0 -- -- 82
2019-02-13 01:00:00 -2.5 0 Calma 2 Este 0 -- -- 82
2019-02-13 00:00:00 -2 0 Calma 2 Sudeste 0 -- -- 82
2019-02-12 23:00:00 -1.1 0 Calma 6 Sudoeste 0 -- -- 80
2019-02-12 22:00:00 -0.3 0 Calma 4 Sur 0 -- -- 79
2019-02-12 21:00:00 0.9 2 Sudoeste 5 Sudoeste 0 -- -- 76
2019-02-12 20:00:00 3.3 0 Calma 6 Norte 0 -- -- 71
2019-02-12 19:00:00 5.9 3 Norte 14 Nordeste 0 -- -- 62
2019-02-12 18:00:00 8.1 9 Nordeste 15 Norte 0 -- -- 56
2019-02-12 17:00:00 9.3 9 Nordeste 17 Norte 0 -- -- 51
2019-02-12 16:00:00 10.9 8 Nordeste 21 Este 0 -- -- 44
2019-02-12 15:00:00 12.1 9 Sudeste 16 Sudeste 0 -- -- 36
2019-02-12 14:00:00 11.7 3 Sur 9 Sur 0 -- -- 37
2019-02-12 13:00:00 9.7 3 Sudeste 6 Sudeste 0 -- -- 37
2019-02-12 12:00:00 6.9 0 Calma 4 Oeste 0 -- -- 53
2019-02-12 11:00:00 3.7 2 Sudeste 5 Sur 0 -- -- 64
2019-02-12 10:00:00 0.4 2 Sur 6 Sudeste 0 -- -- 80
2019-02-12 09:00:00 -3.4 0 Calma 4 Sur 0 -- -- 87
2019-02-12 08:00:00 -3.8 0 Calma 3 Sudeste 0 -- -- 85
2019-02-12 07:00:00 -3.3 0 Calma 7 Sudeste 0 -- -- 85
2019-02-12 06:00:00 -2.7 0 Calma 6 Sur 0 -- -- 85
2019-02-12 05:00:00 -2.1 0 Calma 10 Sudoeste 0 -- -- 83
2019-02-12 04:00:00 -1.4 4 Noroeste 11 Sur 0 -- -- 83
2019-02-12 03:00:00 -0.8 3 Oeste 8 Este 0 -- -- 81
2019-02-12 02:00:00 -0.1 4 Sudeste 9 Sur 0 -- -- 79
2019-02-12 01:00:00 1.3 2 Sudeste 23 Noroeste 0 -- -- 74
2019-02-12 00:00:00 1.8 6 Norte 32 Noroeste 0 -- -- 78
2019-02-11 23:00:00 2.1 10 Norte 28 Nordeste 0 -- -- 78
2019-02-11 22:00:00 2.4 8 Norte 21 Noroeste 0 -- -- 78
2019-02-11 21:00:00 2.7 6 Norte 24 Norte 0 -- -- 77
2019-02-11 20:00:00 3 9 Norte 25 Noroeste 0 -- -- 76
2019-02-11 19:00:00 3.4 10 Norte 24 Noroeste 0 -- -- 72
2019-02-11 18:00:00 4.4 11 Norte 37 Noroeste 0 -- -- 67
2019-02-11 17:00:00 4.5 12 Norte 37 Noroeste 0 -- -- 65
2019-02-11 16:00:00 4.9 19 Noroeste 37 Noroeste 0 -- -- 63
2019-02-11 15:00:00 4.9 13 Noroeste 35 Noroeste 0 -- -- 65
2019-02-11 14:00:00 5.1 19 Noroeste 35 Noroeste 0 -- -- 63
2019-02-11 13:00:00 4.8 20 Noroeste 34 Noroeste 0 -- -- 63
2019-02-11 12:00:00 5.1 13 Norte 31 Noroeste 0 -- -- 60
2019-02-11 11:00:00 3.3 15 Noroeste 28 Noroeste 0 -- -- 70
2019-02-11 10:00:00 2 12 Noroeste 24 Noroeste 0 -- -- 73
2019-02-11 09:00:00 1.3 11 Noroeste 19 Noroeste 0 -- -- 77
2019-02-11 08:00:00 0.5 8 Noroeste 22 Norte 0 -- -- 78
2019-02-11 07:00:00 1 9 Noroeste 25 Noroeste 0 -- -- 76
2019-02-11 06:00:00 1.1 23 Noroeste 37 Noroeste 0 -- -- 73
2019-02-11 05:00:00 1.2 19 Noroeste 41 Noroeste 0 -- -- 70
2019-02-11 04:00:00 1.7 16 Noroeste 30 Noroeste 0 -- -- 77
2019-02-11 03:00:00 1.7 13 Norte 31 Norte 0 -- -- 82
2019-02-11 02:00:00 2.1 13 Norte 31 Norte 0 -- -- 81
2019-02-11 01:00:00 2.4 11 Norte 22 Norte 0 -- -- 83
2019-02-11 00:00:00 2.8 8 Norte 21 Noroeste 0 -- -- 81
2019-02-10 23:00:00 2.9 0 Calma 13 Nordeste 0 -- -- 87
2019-02-10 22:00:00 3.2 6 Nordeste 18 Noroeste 0 -- -- 85
2019-02-10 21:00:00 3.7 7 Nordeste 19 Nordeste 0.2 -- -- 85
2019-02-10 20:00:00 4.9 8 Nordeste 19 Nordeste 0 -- -- 87
2019-02-10 19:00:00 5.5 11 Nordeste 23 Nordeste 0 -- -- 86
2019-02-10 18:00:00 6.8 12 Nordeste 26 Sudoeste 0 -- -- 82
2019-02-10 17:00:00 9.1 10 Sudoeste 24 Sudoeste 0 -- -- 76
2019-02-10 16:00:00 9.3 14 Sudoeste 36 Sudoeste 0 -- -- 73
2019-02-10 15:00:00 11 24 Sudoeste 57 Sudoeste 0 -- -- 64
2019-02-10 14:00:00 10.2 19 Sudoeste 46 Sudoeste 0 -- -- 69
2019-02-10 13:00:00 9.4 24 Sudoeste 54 Sudoeste 0 -- -- 69
2019-02-10 12:00:00 8.2 27 Sudoeste 49 Sudoeste 0 -- -- 70
2019-02-10 11:00:00 7 18 Oeste 45 Oeste 0 -- -- 73
2019-02-10 10:00:00 6.3 19 Oeste 44 Oeste 0 -- -- 74
2019-02-10 09:00:00 5.4 26 Sudoeste 45 Oeste 0 -- -- 74
2019-02-10 08:00:00 5.3 19 Oeste 41 Sudoeste 0 -- -- 72
2019-02-10 07:00:00 5.1 22 Oeste 50 Sudoeste 0 -- -- 73
2019-02-10 06:00:00 4.9 24 Sudoeste 50 Sudoeste 0 -- -- 73
2019-02-10 05:00:00 5.1 19 Oeste 38 Oeste 0 -- -- 72
2019-02-10 04:00:00 5.2 18 Oeste 32 Oeste 0 -- -- 70
2019-02-10 03:00:00 5.5 13 Oeste 41 Sudoeste 0 -- -- 65
2019-02-10 02:00:00 6.5 22 Oeste 46 Sudoeste 0 -- -- 61
2019-02-10 01:00:00 6.6 13 Sudoeste 37 Sudoeste 0 -- -- 63
2019-02-10 00:00:00 6.9 17 Sudoeste 35 Oeste 0 -- -- 67
2019-02-09 23:00:00 7.1 8 Oeste 32 Sudoeste 0 -- -- 64
2019-02-09 22:00:00 6.8 7 Sudoeste 17 Sudoeste 0 -- -- 66
2019-02-09 21:00:00 6.7 9 Sudeste 21 Sudeste 0 -- -- 69
2019-02-09 20:00:00 7.3 5 Sur 10 Sur 0 -- -- 66
2019-02-09 19:00:00 8 7 Sur 13 Sur 0 -- -- 63
2019-02-09 18:00:00 9.4 6 Sur 16 Sudoeste 0 -- -- 56
2019-02-09 17:00:00 10 11 Sudoeste 35 Sudoeste 0 -- -- 53
2019-02-09 16:00:00 11.1 18 Sudoeste 34 Sudoeste 0 -- -- 49
2019-02-09 15:00:00 11 15 Sudoeste 33 Sudoeste 0 -- -- 51
2019-02-09 14:00:00 10.8 10 Sur 31 Sudoeste 0 -- -- 57
2019-02-09 13:00:00 9.2 15 Sur 33 Sur 0 -- -- 61
2019-02-09 12:00:00 8.1 12 Sudoeste 33 Sur 0 -- -- 65
2019-02-09 11:00:00 5.7 2 Sudeste 6 Este 0 -- -- 75
2019-02-09 10:00:00 1.6 0 Calma 3 Sudeste 0 -- -- 85
2019-02-09 09:00:00 -0.8 0 Calma 2 Este 0 -- -- 85
2019-02-09 08:00:00 -0.7 0 Calma 3 Sudoeste 0 -- -- 84
2019-02-09 07:00:00 0.1 0 Calma 4 Oeste 0 -- -- 83
2019-02-09 06:00:00 0.9 0 Calma 11 Sudoeste 0 -- -- 81
2019-02-09 05:00:00 1.5 3 Sur 13 Oeste 0 -- -- 80
2019-02-09 04:00:00 2.8 3 Sudoeste 15 Sudeste 0 -- -- 80
2019-02-09 03:00:00 3.8 4 Sudeste 10 Nordeste 0 -- -- 73
2019-02-09 02:00:00 4.6 4 Sur 13 Sur 0 -- -- 68
2019-02-09 01:00:00 5.1 8 Sudoeste 17 Sudoeste 0 -- -- 67
2019-02-09 00:00:00 6 8 Sudoeste 21 Sudoeste 0 -- -- 66
2019-02-08 23:00:00 5 0 Calma 19 Noroeste 0 -- -- 57
2019-02-08 22:00:00 3.7 0 Calma 8 Norte 0 -- -- 60
2019-02-08 21:00:00 4.3 2 Noroeste 12 Sudeste 0 -- -- 59
2019-02-08 20:00:00 6 2 Sur 9 Sudeste 0 -- -- 56
2019-02-08 19:00:00 8.3 0 Calma 8 Norte 0 -- -- 50
2019-02-08 18:00:00 11.1 5 Norte 24 Sudoeste 0 -- -- 41
2019-02-08 17:00:00 12.1 16 Sur 33 Sudoeste 0 -- -- 40
2019-02-08 16:00:00 13.1 16 Sur 38 Sudoeste 0 -- -- 38
2019-02-08 15:00:00 12.8 19 Sudoeste 35 Sur 0 -- -- 43
2019-02-08 14:00:00 11.8 16 Sudoeste 30 Sudoeste 0 -- -- 53
2019-02-08 13:00:00 10.6 14 Sur 30 Sudoeste 0 -- -- 58
2019-02-08 12:00:00 9.7 14 Sur 27 Sudoeste 0 -- -- 51
2019-02-08 11:00:00 8.7 9 Sudoeste 17 Sur 0 -- -- 48
2019-02-08 10:00:00 4.1 3 Sudeste 8 Sudeste 0 -- -- 73
2019-02-08 09:00:00 -0.6 2 Oeste 4 Sur 0 -- -- 83
2019-02-08 08:00:00 -1.9 0 Calma 3 Noroeste 0 -- -- 87
2019-02-08 07:00:00 -1.6 0 Calma 6 Oeste 0 -- -- 88
2019-02-08 06:00:00 -1.3 0 Calma 5 Noroeste 0 -- -- 89
2019-02-08 05:00:00 -1.7 0 Calma 5 Sudeste 0 -- -- 90
2019-02-08 04:00:00 -1.5 0 Calma 7 Sudoeste 0 -- -- 90
2019-02-08 03:00:00 -1.4 2 Oeste 6 Sur 0 -- -- 90
2019-02-08 02:00:00 -0.3 2 Sur 4 Sudeste 0 -- -- 89
2019-02-08 01:00:00 1.2 2 Sudoeste 6 Sudoeste 0 -- -- 89
2019-02-08 00:00:00 2.3 0 Calma 11 Sudoeste 0 -- -- 88
2019-02-07 23:00:00 3.3 5 Sudoeste 9 Sudoeste 0 -- -- 85
2019-02-07 22:00:00 3.7 3 Sur 6 Sudoeste 0 -- -- 84
2019-02-07 21:00:00 4.2 0 Calma 5 Noroeste 0 -- -- 84
2019-02-07 20:00:00 4.9 0 Calma 7 Nordeste 0 -- -- 83
2019-02-07 19:00:00 5.7 4 Nordeste 10 Norte 0 -- -- 80
2019-02-07 18:00:00 7 5 Nordeste 16 Nordeste 0 -- -- 73
2019-02-07 17:00:00 7.7 8 Nordeste 24 Norte 0 -- -- 69
2019-02-07 16:00:00 10 11 Nordeste 24 Este 0 -- -- 60
2019-02-07 15:00:00 11.1 8 Nordeste 20 Este 0 -- -- 51
2019-02-07 14:00:00 11 10 Sudoeste 17 Sudoeste 0 -- -- 50
2019-02-07 13:00:00 10.1 2 Este 10 Este 0 -- -- 49
2019-02-07 12:00:00 7.9 3 Este 5 Sur 0 -- -- 52
2019-02-07 11:00:00 3.6 0 Calma 6 Sur 0 -- -- 72
2019-02-07 10:00:00 0.9 3 Sudeste 6 Noroeste 0 -- -- 80
2019-02-07 09:00:00 -1.7 0 Calma 3 Sudoeste 0 -- -- 84
2019-02-07 08:00:00 -1.7 0 Calma 5 Noroeste 0 -- -- 83
2019-02-07 07:00:00 -1.2 0 Calma 3 Sudoeste 0 -- -- 84
2019-02-07 06:00:00 -1.2 0 Calma 8 Sur 0 -- -- 84
2019-02-07 05:00:00 -0.9 0 Calma 3 Noroeste 0 -- -- 83
2019-02-07 04:00:00 -0.6 0 Calma 3 Sudeste 0 -- -- 83
2019-02-07 03:00:00 -0.4 0 Calma 4 Sudoeste 0 -- -- 82
2019-02-07 02:00:00 -0.1 2 Sur 4 Sur 0 -- -- 81
2019-02-07 01:00:00 0.4 0 Calma 4 Sudoeste 0 -- -- 79
2019-02-07 00:00:00 1.5 0 Calma 4 Sudoeste 0 -- -- 76
2019-02-06 23:00:00 2.9 0 Calma 6 Noroeste 0 -- -- 71
2019-02-06 22:00:00 4.2 0 Calma 5 Sudoeste 0 -- -- 68
2019-02-06 21:00:00 6 2 Noroeste 9 Sur 0 -- -- 60
2019-02-06 20:00:00 6.1 3 Norte 14 Sur 0 -- -- 62
2019-02-06 19:00:00 8.3 6 Sudoeste 17 Sudoeste 0 -- -- 57
2019-02-06 18:00:00 11.6 8 Sudoeste 21 Sudoeste 0 -- -- 53
2019-02-06 17:00:00 13.2 14 Sudoeste 28 Sudoeste 0 -- -- 51
2019-02-06 16:00:00 14.3 14 Sudoeste 26 Sudoeste 0 -- -- 48
2019-02-06 15:00:00 14.8 9 Sur 17 Sur 0 -- -- 43
2019-02-06 14:00:00 14.1 9 Sudoeste 16 Sur 0 -- -- 46
2019-02-06 13:00:00 12.2 0 Calma 4 Sudeste 0 -- -- 49
2019-02-06 12:00:00 7.8 0 Calma 4 Sudeste 0 -- -- 68
2019-02-06 11:00:00 3.8 2 Sudeste 5 Este 0 -- -- 81
2019-02-06 10:00:00 0.2 0 Calma 4 Sur 0 -- -- 88
2019-02-06 09:00:00 -2.9 0 Calma 3 Sudoeste 0 -- -- 89
2019-02-06 08:00:00 -3.3 0 Calma 4 Noroeste 0 -- -- 88
2019-02-06 07:00:00 -3 0 Calma 5 Sudoeste 0 -- -- 89
2019-02-06 06:00:00 -2.6 0 Calma 5 Sudoeste 0 -- -- 89
2019-02-06 05:00:00 -2.3 0 Calma 3 Sudoeste 0 -- -- 89
2019-02-06 04:00:00 -2.2 0 Calma -- -- 0 -- -- 88
2019-02-06 03:00:00 -1.7 0 Calma 5 Sudoeste 0 -- -- 88
2019-02-06 02:00:00 -1.4 0 Calma 2 Sudeste 0 -- -- 87
2019-02-06 01:00:00 -0.9 0 Calma 3 Sudoeste 0 -- -- 87
2019-02-06 00:00:00 -0.5 0 Calma 3 Sur 0 -- -- 86
2019-02-05 23:00:00 0.5 0 Calma 5 Sur 0 -- -- 85
2019-02-05 22:00:00 1.3 0 Calma 2 Este 0 -- -- 83
2019-02-05 21:00:00 2.5 0 Calma 5 Sudoeste 0 -- -- 81
2019-02-05 20:00:00 4.4 0 Calma 9 Oeste 0 -- -- 77
2019-02-05 19:00:00 7.1 7 Norte 21 Nordeste 0 -- -- 69
2019-02-05 18:00:00 9 10 Nordeste 21 Nordeste 0 -- -- 63
2019-02-05 17:00:00 10.7 7 Norte 15 Noroeste 0 -- -- 57
2019-02-05 16:00:00 11.7 7 Nordeste 14 Nordeste 0 -- -- 53
2019-02-05 15:00:00 12.1 8 Oeste 19 Oeste 0 -- -- 54
2019-02-05 14:00:00 12.2 10 Oeste 18 Oeste 0 -- -- 56
2019-02-05 13:00:00 11.2 10 Oeste 22 Oeste 0 -- -- 57
2019-02-05 12:00:00 9.8 3 Este 10 Sudeste 0 -- -- 61
2019-02-05 11:00:00 7.8 3 Sudeste 7 Sudeste 0 -- -- 69
2019-02-05 10:00:00 5.4 0 Calma 10 Sur 0 -- -- 78
2019-02-05 09:00:00 2.6 0 Calma 12 Sudoeste 0 -- -- 83
2019-02-05 08:00:00 2.1 2 Norte 9 Noroeste 0 -- -- 86
2019-02-05 07:00:00 2.5 0 Calma 6 Este 0 -- -- 84
2019-02-05 06:00:00 3.7 0 Calma 5 Norte 0 -- -- 82
2019-02-05 05:00:00 4.2 2 Noroeste 20 Oeste 0 -- -- 80
2019-02-05 04:00:00 4.1 10 Oeste 16 Noroeste 0 -- -- 83
2019-02-05 03:00:00 2.9 2 Norte 5 Sudeste 0 -- -- 79
2019-02-05 02:00:00 2.9 0 Calma 5 Oeste 0 -- -- 77
2019-02-05 01:00:00 3.1 2 Este 14 Oeste 0 -- -- 76
2019-02-05 00:00:00 3.4 3 Sudeste 8 Sur 0 -- -- 74
2019-02-04 23:00:00 3.9 2 Oeste 10 Sur 0 -- -- 71
2019-02-04 22:00:00 4 2 Sudoeste 9 Oeste 0 -- -- 70
2019-02-04 21:00:00 3.9 4 Sudoeste 9 Sudoeste 0 -- -- 71
2019-02-04 20:00:00 4 6 Oeste 13 Sudoeste 0 -- -- 71
2019-02-04 19:00:00 5.1 6 Noroeste 12 Noroeste 0 -- -- 67
2019-02-04 18:00:00 6.2 5 Oeste 18 Oeste 0 -- -- 65
2019-02-04 17:00:00 6.6 9 Sudoeste 18 Sudoeste 0 -- -- 58
2019-02-04 16:00:00 8 9 Sudoeste 15 Norte 0 -- -- 47
2019-02-04 15:00:00 8.3 3 Norte 6 Oeste 0 -- -- 39
2019-02-04 14:00:00 6.5 0 Calma 8 Sudeste 0 -- -- 43
2019-02-04 13:00:00 6.1 4 Sudeste 8 Sur 0 -- -- 47
2019-02-04 12:00:00 6.5 3 Sur 7 Sur 0 -- -- 43
2019-02-04 11:00:00 3.2 0 Calma 12 Sudeste 0.4 -- -- 52
2019-02-04 10:00:00 -1.9 0 Calma 4 Sudeste 0 -- -- 62
2019-02-04 09:00:00 -4.3 0 Calma 9 Sur 0 -- -- 65
2019-02-04 08:00:00 -3.2 4 Sur 15 Oeste 0 -- -- 58
2019-02-04 07:00:00 -2.7 6 Oeste 13 Sudoeste 0 -- -- 59
2019-02-04 06:00:00 -2.5 4 Noroeste 28 Oeste 0 -- -- 64
2019-02-04 05:00:00 -1.8 19 Noroeste 27 Noroeste 0 -- -- 69
2019-02-04 04:00:00 -2.9 2 Nordeste 13 Oeste 0 -- -- 78
2019-02-04 03:00:00 -3.6 3 Sur 11 Oeste 0 -- -- 77
2019-02-04 02:00:00 -2.3 0 Calma 19 Oeste 0 -- -- 76
2019-02-04 01:00:00 -0.7 10 Noroeste 28 Noroeste 0 -- -- 73
2019-02-04 00:00:00 -0.5 13 Noroeste 26 Noroeste 0 -- -- 74
2019-02-03 23:00:00 -0.6 8 Noroeste 23 Norte 0 -- -- 75
2019-02-03 22:00:00 -0.7 9 Noroeste 26 Noroeste 0 -- -- 76
2019-02-03 21:00:00 -0.8 7 Norte 26 Noroeste 0 -- -- 75
2019-02-03 20:00:00 -0.7 10 Noroeste 28 Noroeste 0 -- -- 74
2019-02-03 19:00:00 -0.6 7 Norte 27 Norte 0 -- -- 75
2019-02-03 18:00:00 -0.1 6 Este 47 Noroeste 0 -- -- 71
2019-02-03 17:00:00 0.5 21 Norte 50 Noroeste 0.4 -- -- 68
2019-02-03 16:00:00 0.5 18 Norte 59 Norte 0.2 -- -- 71
2019-02-03 15:00:00 0.3 29 Norte 64 Noroeste 0.2 -- -- 68
2019-02-03 14:00:00 0.2 35 Norte 72 Noroeste 0.2 -- -- 68
2019-02-03 13:00:00 -0.2 26 Noroeste 77 Noroeste 0.4 -- -- 74
2019-02-03 12:00:00 -0.5 35 Norte 74 Noroeste 0 -- -- 72
2019-02-03 11:00:00 -1.1 36 Noroeste 68 Noroeste 0 -- -- 72
2019-02-03 10:00:00 -1.6 40 Noroeste 73 Noroeste 0 -- -- 75
2019-02-03 09:00:00 -2.1 32 Noroeste 54 Noroeste 0 -- -- 76
2019-02-03 08:00:00 -2.2 28 Noroeste 64 Noroeste 0 -- -- 73
2019-02-03 07:00:00 -2.4 31 Noroeste 56 Noroeste 0 -- -- 73
2019-02-03 06:00:00 -2.5 33 Noroeste 59 Norte 0 -- -- 70
2019-02-03 05:00:00 -2.5 33 Noroeste 56 Noroeste 0 -- -- 77
2019-02-03 04:00:00 -2.7 19 Noroeste 39 Noroeste 0 -- -- 85
2019-02-03 03:00:00 -2.3 26 Noroeste 55 Noroeste 0 -- -- 73
2019-02-03 02:00:00 -2.8 23 Noroeste 55 Noroeste 0 -- -- 85
2019-02-03 01:00:00 -2.6 21 Norte 46 Noroeste 0 -- -- 81
2019-02-03 00:00:00 -1.8 24 Noroeste 44 Noroeste 0 -- -- 78
2019-02-02 23:00:00 -2.2 21 Noroeste 54 Noroeste 0 -- -- 84
2019-02-02 22:00:00 -1.7 24 Noroeste 45 Noroeste 0 -- -- 74
2019-02-02 21:00:00 -1.5 22 Noroeste 46 Noroeste 0 -- -- 77
2019-02-02 20:00:00 -1.2 33 Noroeste 55 Noroeste 0 -- -- 68
2019-02-02 19:00:00 -2.2 30 Noroeste 58 Noroeste 0 -- -- 81
2019-02-02 18:00:00 -2.2 13 Noroeste 44 Noroeste 0 -- -- 84
2019-02-02 17:00:00 -1.2 29 Noroeste 63 Noroeste 0 -- -- 72
2019-02-02 16:00:00 -0.5 29 Noroeste 63 Noroeste 0 -- -- 69
2019-02-02 15:00:00 -0.1 41 Noroeste 88 Noroeste 0.6 -- -- 61
2019-02-02 14:00:00 -0.2 33 Noroeste 72 Noroeste 0.4 -- -- 65
2019-02-02 13:00:00 -0.2 36 Noroeste 72 Noroeste 1 -- -- 67
2019-02-02 12:00:00 -0.4 28 Noroeste 77 Noroeste 0.8 -- -- 70
2019-02-02 11:00:00 -0.5 38 Noroeste 67 Noroeste 0 -- -- 70
2019-02-02 10:00:00 -0.4 29 Noroeste 64 Noroeste 0 -- -- 79
2019-02-02 09:00:00 -0.6 39 Noroeste 69 Noroeste 0 -- -- 81
2019-02-02 08:00:00 -0.7 31 Noroeste 57 Noroeste 0 -- -- 86
2019-02-02 07:00:00 -0.9 31 Noroeste 55 Oeste 0 -- -- 88
2019-02-02 06:00:00 -0.8 30 Noroeste 46 Oeste 0 -- -- 89
2019-02-02 05:00:00 -0.6 23 Oeste 43 Noroeste 0 -- -- 89
2019-02-02 04:00:00 -0.3 15 Oeste 37 Noroeste 0 -- -- 88
2019-02-02 03:00:00 0.5 18 Oeste 27 Oeste 0 -- -- 82
2019-02-02 02:00:00 0.7 17 Noroeste 34 Noroeste 0 -- -- 77
2019-02-02 01:00:00 0.8 17 Oeste 28 Oeste 0 -- -- 74
2019-02-02 00:00:00 0.9 13 Oeste 27 Oeste 0 -- -- 71
2019-02-01 23:00:00 0.2 16 Oeste 28 Noroeste 0 -- -- 73
2019-02-01 22:00:00 -0.5 3 Oeste 27 Sudoeste 0 -- -- 77
2019-02-01 21:00:00 0.3 14 Sudoeste 28 Sudoeste 0 -- -- 79
2019-02-01 20:00:00 0.9 14 Sudoeste 35 Sudoeste 0 -- -- 79
2019-02-01 19:00:00 1.7 20 Sudoeste 38 Sudoeste 0 -- -- 69
2019-02-01 18:00:00 2.1 17 Sudoeste 46 Sudoeste 0 -- -- 69
2019-02-01 17:00:00 2.8 28 Sudoeste 54 Oeste 0 -- -- 69
2019-02-01 16:00:00 3.5 31 Sudoeste 69 Sudoeste 0.2 -- -- 71
2019-02-01 15:00:00 3 29 Sudoeste 52 Sudoeste 0.6 -- -- 79
2019-02-01 14:00:00 4.2 28 Sudoeste 59 Sudoeste 0 -- -- 76
2019-02-01 13:00:00 3.1 30 Sudoeste 66 Sudoeste 0 -- -- 80
2019-02-01 12:00:00 3.5 35 Sudoeste 74 Sudoeste 0 -- -- 77
2019-02-01 11:00:00 3.7 40 Sudoeste 79 Sudoeste 0 -- -- 66
2019-02-01 10:00:00 3.4 33 Sudoeste 62 Sudoeste 0 -- -- 69
2019-02-01 09:00:00 2.8 25 Sudoeste 47 Sudoeste 0 -- -- 73
2019-02-01 08:00:00 2.9 18 Sudoeste 55 Sudoeste 0 -- -- 75
2019-02-01 07:00:00 3.6 30 Sudoeste 64 Sudoeste 0 -- -- 73
2019-02-01 06:00:00 4 32 Sudoeste 55 Sudoeste 0 -- -- 71
2019-02-01 05:00:00 4.4 27 Sudoeste 58 Sudoeste 0 -- -- 69
2019-02-01 04:00:00 5 30 Sudoeste 63 Sudoeste 0 -- -- 74
2019-02-01 03:00:00 4.6 21 Sudoeste 41 Sudoeste 0.8 -- -- 80
2019-02-01 02:00:00 5.7 16 Sudoeste 50 Sudoeste 2 -- -- 82
2019-02-01 01:00:00 7 28 Sudoeste 63 Sudoeste 2 -- -- 80
2019-02-01 00:00:00 7.6 38 Sudoeste 67 Sudoeste 2 -- -- 78
2019-01-31 23:00:00 7.7 32 Sudoeste 65 Sudoeste 0.8 -- -- 82
2019-01-31 22:00:00 7.9 28 Sudoeste 70 Sudoeste 0.2 -- -- 80
2019-01-31 21:00:00 8.3 37 Sudoeste 70 Sudoeste 0 -- -- 79
2019-01-31 20:00:00 8.7 33 Sudoeste 59 Sudoeste 0.2 -- -- 78
2019-01-31 19:00:00 9.2 39 Sudoeste 76 Sudoeste 0 -- -- 75
2019-01-31 18:00:00 9.3 36 Sudoeste 67 Sudoeste 0 -- -- 77
2019-01-31 17:00:00 9.5 32 Sudoeste 56 Sudoeste 0 -- -- 76
2019-01-31 16:00:00 9.9 32 Sudoeste 49 Sudoeste 0 -- -- 73
2019-01-31 15:00:00 9.7 23 Sudoeste 45 Sudoeste 0 -- -- 74
2019-01-31 14:00:00 9.8 33 Sudoeste 54 Sudoeste 0 -- -- 72
2019-01-31 13:00:00 9.5 37 Sudoeste 57 Sudoeste 0 -- -- 70
2019-01-31 12:00:00 9 31 Sudoeste 54 Sudoeste 0 -- -- 71
2019-01-31 11:00:00 8.5 27 Oeste 50 Sudoeste 0 -- -- 71
2019-01-31 10:00:00 7.2 31 Sudoeste 49 Sudoeste 0 -- -- 75
2019-01-31 09:00:00 7.3 24 Sudoeste 40 Oeste 0 -- -- 76
2019-01-31 08:00:00 7.2 22 Oeste 40 Sudoeste 0.2 -- -- 77
2019-01-31 07:00:00 7.1 21 Sudoeste 41 Sudoeste 0.4 -- -- 78
2019-01-31 06:00:00 6.8 20 Oeste 38 Oeste 0 -- -- 77
2019-01-31 05:00:00 6.6 24 Sudoeste 42 Sudoeste 0 -- -- 75
2019-01-31 04:00:00 6 26 Sudoeste 44 Oeste 0 -- -- 76
2019-01-31 03:00:00 5 22 Oeste 40 Sudoeste 0 -- -- 77
2019-01-31 02:00:00 3.9 15 Oeste 31 Sudoeste 1 -- -- 80
2019-01-31 01:00:00 3.5 15 Oeste 39 Sudoeste 0.4 -- -- 81
2019-01-31 00:00:00 1.4 10 Sudoeste 26 Sudoeste 0.6 -- -- 83
2019-01-30 23:00:00 1.2 9 Oeste 27 Oeste 0 -- -- 82
2019-01-30 22:00:00 1.7 13 Sudoeste 29 Sudoeste 0 -- -- 80
2019-01-30 21:00:00 1.9 10 Sudoeste 33 Sudoeste 0 -- -- 77
2019-01-30 20:00:00 2.3 18 Sudoeste 36 Sudoeste 0 -- -- 73
2019-01-30 19:00:00 3.1 13 Sudoeste 33 Sudoeste 0 -- -- 64
2019-01-30 18:00:00 3.5 16 Oeste 32 Sudoeste 0 -- -- 59
2019-01-30 17:00:00 4.2 19 Sudoeste 35 Sudoeste 0 -- -- 53
2019-01-30 16:00:00 4.7 15 Sudoeste 33 Sudoeste 0 -- -- 53
2019-01-30 15:00:00 4.6 14 Sur 33 Sudoeste 0 -- -- 52
2019-01-30 14:00:00 5.1 15 Sudoeste 27 Sur 0 -- -- 53
2019-01-30 13:00:00 4.9 14 Sudoeste 25 Sudoeste 0 -- -- 57
2019-01-30 12:00:00 4.1 13 Sudoeste 26 Sudoeste 0 -- -- 58
2019-01-30 11:00:00 3.3 12 Oeste 26 Oeste 0 -- -- 57
2019-01-30 10:00:00 1.7 3 Sudeste 16 Sudeste 0 -- -- 59
2019-01-30 09:00:00 0.8 3 Sudoeste 28 Oeste 0 -- -- 63
2019-01-30 08:00:00 0.8 19 Oeste 38 Oeste 0 -- -- 64
2019-01-30 07:00:00 0.7 19 Oeste 32 Oeste 0 -- -- 66
2019-01-30 06:00:00 0.9 16 Oeste 27 Oeste 0 -- -- 65
2019-01-30 05:00:00 0.8 11 Oeste 20 Oeste 0 -- -- 70
2019-01-30 04:00:00 0.5 7 Sudoeste 10 Sudoeste 0 -- -- 73
2019-01-30 03:00:00 0.8 5 Oeste 20 Noroeste 0 -- -- 68
2019-01-30 02:00:00 0.8 8 Oeste 32 Noroeste 0 -- -- 70
2019-01-30 01:00:00 1.3 17 Noroeste 38 Oeste 0 -- -- 66
2019-01-30 00:00:00 1.3 20 Noroeste 47 Oeste 0 -- -- 64
2019-01-29 23:00:00 1.8 24 Noroeste 44 Oeste 0 -- -- 71
2019-01-29 22:00:00 2.2 18 Noroeste 38 Noroeste 0 -- -- 73
2019-01-29 21:00:00 2.6 17 Noroeste 40 Noroeste 0 -- -- 75
2019-01-29 20:00:00 3.3 19 Noroeste 32 Noroeste 0 -- -- 75
2019-01-29 19:00:00 3 15 Oeste 40 Noroeste 0.8 -- -- 81
2019-01-29 18:00:00 4.7 15 Oeste 42 Noroeste 0.2 -- -- 76
2019-01-29 17:00:00 6.1 19 Sudoeste 36 Oeste 0 -- -- 71
2019-01-29 16:00:00 7.8 27 Sudoeste 53 Sudoeste 0 -- -- 63
2019-01-29 15:00:00 5.4 23 Sudoeste 45 Sudoeste 0 -- -- 72
2019-01-29 14:00:00 5.9 23 Sudoeste 46 Oeste 0 -- -- 66
2019-01-29 13:00:00 6 24 Sudoeste 46 Sudoeste 0 -- -- 69
2019-01-29 12:00:00 4.8 19 Sudoeste 35 Sudoeste 0 -- -- 70
2019-01-29 11:00:00 3.4 14 Sudoeste 32 Sur 0 -- -- 74
2019-01-29 10:00:00 0.6 11 Sur 28 Sudoeste 0 -- -- 78
2019-01-29 09:00:00 -0.2 12 Sur 32 Sur 0 -- -- 78
2019-01-29 08:00:00 -0.1 5 Sur 14 Sudeste 0 -- -- 77
2019-01-29 07:00:00 0.1 0 Calma 8 Oeste 0 -- -- 77
2019-01-29 06:00:00 1.2 4 Sudoeste 21 Oeste 0 -- -- 73
2019-01-29 05:00:00 1.9 11 Oeste 27 Oeste 0 -- -- 71
2019-01-29 04:00:00 2.3 4 Sur 22 Noroeste 0 -- -- 73
2019-01-29 03:00:00 2 6 Sudeste 11 Oeste 0 -- -- 76
2019-01-29 02:00:00 2 9 Oeste 34 Noroeste 0 -- -- 76
2019-01-29 01:00:00 2.6 17 Noroeste 45 Noroeste 0 -- -- 73
2019-01-29 00:00:00 2.6 27 Noroeste 45 Noroeste 0 -- -- 74
2019-01-28 23:00:00 2.6 27 Noroeste 45 Noroeste 0 -- -- 77
2019-01-28 22:00:00 2.9 16 Noroeste 51 Oeste 0 -- -- 71
2019-01-28 21:00:00 2.7 20 Oeste 59 Noroeste 0 -- -- 71
2019-01-28 20:00:00 3.2 40 Noroeste 69 Noroeste 0 -- -- 67
2019-01-28 19:00:00 3.3 39 Noroeste 77 Noroeste 0 -- -- 72
2019-01-28 18:00:00 3.6 40 Noroeste 67 Noroeste 0 -- -- 70
2019-01-28 17:00:00 4 37 Noroeste 65 Noroeste 0 -- -- 70
2019-01-28 16:00:00 4.4 39 Noroeste 65 Noroeste 0 -- -- 70
2019-01-28 15:00:00 4 32 Noroeste 55 Noroeste 0.2 -- -- 77
2019-01-28 14:00:00 3.7 32 Noroeste 60 Noroeste 0.4 -- -- 82
2019-01-28 13:00:00 4.9 26 Noroeste 49 Oeste 0 -- -- 74
2019-01-28 12:00:00 4.2 25 Noroeste 62 Noroeste 0 -- -- 75
2019-01-28 11:00:00 5.5 35 Noroeste 69 Noroeste 0 -- -- 64
2019-01-28 10:00:00 5.4 30 Noroeste 51 Noroeste 0 -- -- 60
2019-01-28 09:00:00 3.1 26 Oeste 49 Oeste 0 -- -- 65
2019-01-28 08:00:00 2.2 14 Oeste 30 Oeste 0 -- -- 68
2019-01-28 07:00:00 2.2 15 Noroeste 44 Noroeste 0 -- -- 65
2019-01-28 06:00:00 2.8 26 Oeste 40 Oeste 0 -- -- 62
2019-01-28 05:00:00 3 21 Oeste 52 Oeste 0 -- -- 66
2019-01-28 04:00:00 2.9 23 Noroeste 44 Noroeste 0 -- -- 67
2019-01-28 03:00:00 2.4 23 Noroeste 45 Oeste 0 -- -- 63
2019-01-28 02:00:00 1.7 26 Noroeste 83 Noroeste 0 -- -- 62
2019-01-28 01:00:00 2.1 43 Noroeste 77 Noroeste 0 -- -- 59
2019-01-28 00:00:00 2.1 40 Noroeste 66 Noroeste 0 -- -- 68
2019-01-27 23:00:00 2 36 Noroeste 63 Noroeste 0 -- -- 69
2019-01-27 22:00:00 1.7 30 Noroeste 55 Noroeste 0 -- -- 71
2019-01-27 21:00:00 1.6 27 Noroeste 52 Oeste 0 -- -- 73
2019-01-27 20:00:00 2 32 Noroeste 50 Noroeste 0 -- -- 67
2019-01-27 19:00:00 1.8 23 Noroeste 51 Noroeste 0 -- -- 70
2019-01-27 18:00:00 2.1 30 Noroeste 53 Oeste 0 -- -- 72
2019-01-27 17:00:00 2.5 33 Noroeste 62 Noroeste 0 -- -- 68
2019-01-27 16:00:00 2.3 23 Noroeste 41 Oeste 0 -- -- 78
2019-01-27 15:00:00 3.4 19 Noroeste 71 Noroeste 0 -- -- 62
2019-01-27 14:00:00 3.5 27 Noroeste 54 Noroeste 0 -- -- 62
2019-01-27 13:00:00 4.4 29 Noroeste 73 Noroeste 0 -- -- 59
2019-01-27 12:00:00 4.5 45 Noroeste 68 Noroeste 0 -- -- 60
2019-01-27 11:00:00 4 34 Noroeste 52 Noroeste 0 -- -- 62
2019-01-27 10:00:00 2.9 23 Noroeste 39 Noroeste 0.2 -- -- 74
2019-01-27 09:00:00 2.8 4 Norte 22 Noroeste 0 -- -- 83
2019-01-27 08:00:00 0.6 0 Calma 6 Noroeste 0 -- -- 80
2019-01-27 07:00:00 0.7 0 Calma 7 Oeste 0 -- -- 80
2019-01-27 06:00:00 0.8 4 Sudeste 12 Sur 0 -- -- 80
2019-01-27 05:00:00 0.8 3 Este 9 Este 0 -- -- 78
2019-01-27 04:00:00 0.2 0 Calma 9 Sur 0 -- -- 76
2019-01-27 03:00:00 0.3 2 Sudeste 5 Sudeste 0 -- -- 76
2019-01-27 02:00:00 -1.2 2 Sur 5 Oeste 0 -- -- 80
2019-01-27 01:00:00 -1 3 Oeste 5 Sur 0 -- -- 79
2019-01-27 00:00:00 -0.7 0 Calma 4 Este 0 -- -- 80
2019-01-26 23:00:00 -0.3 0 Calma 2 Este 0 -- -- 80
2019-01-26 22:00:00 0.5 0 Calma 2 Oeste 0 -- -- 77
2019-01-26 21:00:00 2.1 0 Calma 5 Sudoeste 0 -- -- 72
2019-01-26 20:00:00 4 0 Calma 5 Este 0 -- -- 70
2019-01-26 19:00:00 6.7 0 Calma 5 Oeste 0 -- -- 61
2019-01-26 18:00:00 10.4 2 Oeste 9 Oeste 0 -- -- 50
2019-01-26 17:00:00 13.6 7 Oeste 20 Sudoeste 0 -- -- 38
2019-01-26 16:00:00 15.2 13 Sur 20 Sudoeste 0 -- -- 41
2019-01-26 15:00:00 16.1 5 Sudoeste 17 Oeste 0 -- -- 31
2019-01-26 14:00:00 14.8 9 Sudoeste 19 Oeste 0 -- -- 30
2019-01-26 13:00:00 12.2 3 Sudeste 5 Sudeste 0 -- -- 40
2019-01-26 12:00:00 7 2 Sudeste 5 Este 0 -- -- 66
2019-01-26 11:00:00 2.3 0 Calma 5 Sur 0 -- -- 79
2019-01-26 10:00:00 -0.4 2 Sur 4 Sudeste 0 -- -- 86
2019-01-26 09:00:00 -2.6 0 Calma 4 Sudoeste 0 -- -- 88
2019-01-26 08:00:00 -2.3 3 Sur 5 Sur 0 -- -- 87
2019-01-26 07:00:00 -1.4 0 Calma 4 Sur 0 -- -- 86
2019-01-26 06:00:00 -0.5 0 Calma 7 Sudeste 0 -- -- 86
2019-01-26 05:00:00 0.5 0 Calma 7 Sur 0 -- -- 83
2019-01-26 04:00:00 2.1 4 Sudoeste 15 Nordeste 0 -- -- 80
2019-01-26 03:00:00 3.7 4 Sudeste 21 Noroeste 0 -- -- 75
2019-01-26 02:00:00 4.1 11 Noroeste 33 Noroeste 0 -- -- 76
2019-01-26 01:00:00 4.3 8 Noroeste 33 Oeste 0 -- -- 77
2019-01-26 00:00:00 4.4 6 Oeste 39 Oeste 0 -- -- 75
2019-01-25 23:00:00 4.7 9 Noroeste 35 Oeste 0 -- -- 74
2019-01-25 22:00:00 4.6 14 Noroeste 39 Oeste 0 -- -- 76
2019-01-25 21:00:00 4.8 21 Noroeste 44 Oeste 0 -- -- 75
2019-01-25 20:00:00 4.6 19 Oeste 34 Noroeste 0 -- -- 77
2019-01-25 19:00:00 5 13 Sudoeste 33 Sudeste 0 -- -- 75
2019-01-25 18:00:00 4.9 9 Noroeste 33 Noroeste 0 -- -- 77
2019-01-25 17:00:00 5.5 8 Norte 30 Nordeste 0 -- -- 76
2019-01-25 16:00:00 5.8 17 Este 31 Nordeste 0 -- -- 73
2019-01-25 15:00:00 6.1 10 Oeste 50 Noroeste 0 -- -- 73
2019-01-25 14:00:00 6.2 19 Noroeste 46 Noroeste 0 -- -- 72
2019-01-25 13:00:00 6 19 Noroeste 65 Noroeste 0 -- -- 74
2019-01-25 12:00:00 6 38 Noroeste 71 Noroeste 0 -- -- 73
2019-01-25 11:00:00 6.1 44 Noroeste 79 Noroeste 0 -- -- 74
2019-01-25 10:00:00 5.6 34 Noroeste 55 Noroeste 0 -- -- 78
2019-01-25 09:00:00 5.4 32 Noroeste 62 Noroeste 0 -- -- 79
2019-01-25 08:00:00 5.3 37 Noroeste 59 Noroeste 0 -- -- 80
2019-01-25 07:00:00 5.2 37 Noroeste 64 Noroeste 0 -- -- 82
2019-01-25 06:00:00 5.2 40 Noroeste 65 Noroeste 0 -- -- 80
2019-01-25 05:00:00 5.2 28 Noroeste 64 Noroeste 0 -- -- 81
2019-01-25 04:00:00 5.3 42 Noroeste 81 Noroeste 0 -- -- 80
2019-01-25 03:00:00 5.4 41 Noroeste 83 Noroeste 0 -- -- 80
2019-01-25 02:00:00 5.2 43 Noroeste 70 Noroeste 0 -- -- 80
2019-01-25 01:00:00 4.7 33 Noroeste 69 Noroeste 0 -- -- 83
2019-01-25 00:00:00 4.6 29 Noroeste 60 Noroeste 0 -- -- 83
2019-01-24 23:00:00 4.2 32 Noroeste 62 Noroeste 0 -- -- 85
2019-01-24 22:00:00 4.4 37 Noroeste 67 Noroeste 0 -- -- 83
2019-01-24 21:00:00 4.3 32 Noroeste 55 Noroeste 0 -- -- 82
2019-01-24 20:00:00 3.9 30 Noroeste 54 Noroeste 0 -- -- 88
2019-01-24 19:00:00 3 24 Norte 51 Norte 0.2 -- -- 89
2019-01-24 18:00:00 3.2 26 Noroeste 49 Norte 0 -- -- 85
2019-01-24 17:00:00 3.2 24 Noroeste 53 Norte 0 -- -- 82
2019-01-24 16:00:00 3.7 24 Norte 53 Noroeste 0 -- -- 81
2019-01-24 15:00:00 3.6 23 Noroeste 43 Noroeste 0 -- -- 79
2019-01-24 14:00:00 2.8 21 Norte 39 Noroeste 0.4 -- -- 81
2019-01-24 13:00:00 2.3 19 Noroeste 34 Noroeste 2.4 -- -- 82
2019-01-24 12:00:00 0.7 3 Noroeste 7 Nordeste 1 -- -- 91
2019-01-24 11:00:00 0.5 0 Calma 10 Norte 0.4 -- -- 90
2019-01-24 10:00:00 0.5 3 Norte 11 Noroeste 0.2 -- -- 90
2019-01-24 09:00:00 1.3 6 Noroeste 18 Noroeste 0.8 -- -- 90
2019-01-24 08:00:00 1.2 8 Noroeste 16 Norte 0.8 -- -- 91
2019-01-24 07:00:00 1.1 4 Nordeste 30 Noroeste 1.2 -- -- 89
2019-01-24 06:00:00 1.7 16 Noroeste 30 Noroeste 1.4 -- -- 89
2019-01-24 05:00:00 1.5 8 Noroeste 26 Noroeste 1.2 -- -- 89
2019-01-24 04:00:00 1.5 10 Noroeste 36 Noroeste 1.2 -- -- 89
2019-01-24 03:00:00 1.7 19 Noroeste 44 Noroeste 1.8 -- -- 89
2019-01-24 02:00:00 1.8 15 Noroeste 38 Norte 1.2 -- -- 90
2019-01-24 01:00:00 2.4 22 Noroeste 55 Noroeste 0.8 -- -- 89
2019-01-24 00:00:00 2.5 26 Noroeste 60 Noroeste 1.2 -- -- 88
2019-01-23 23:00:00 2.7 28 Noroeste 56 Noroeste 1.2 -- -- 89
2019-01-23 22:00:00 3 31 Noroeste 61 Noroeste 1.8 -- -- 87
2019-01-23 21:00:00 3.6 22 Noroeste 68 Noroeste 0.6 -- -- 86
2019-01-23 20:00:00 4.5 38 Noroeste 66 Noroeste 0.6 -- -- 77
2019-01-23 19:00:00 4 17 Noroeste 36 Noroeste 0.6 -- -- 81
2019-01-23 18:00:00 4.3 25 Noroeste 57 Oeste 0.2 -- -- 80
2019-01-23 17:00:00 4.3 26 Noroeste 52 Oeste 0.4 -- -- 80
2019-01-23 16:00:00 4.3 22 Noroeste 46 Noroeste 0.8 -- -- 80
2019-01-23 15:00:00 3.8 6 Noroeste 28 Noroeste 1.6 -- -- 83
2019-01-23 14:00:00 4 18 Noroeste 36 Noroeste 1 -- -- 82
2019-01-23 13:00:00 4.4 23 Noroeste 43 Oeste 0.6 -- -- 81
2019-01-23 12:00:00 4.5 24 Noroeste 66 Noroeste 0 -- -- 81
2019-01-23 11:00:00 4.5 23 Noroeste 63 Oeste 0 -- -- 80
2019-01-23 10:00:00 4.5 33 Noroeste 62 Noroeste 0 -- -- 79
2019-01-23 09:00:00 4.3 37 Noroeste 61 Oeste 0.2 -- -- 80
2019-01-23 08:00:00 3.6 22 Oeste 48 Oeste 0.4 -- -- 81
2019-01-23 07:00:00 3.3 27 Oeste 49 Oeste 0 -- -- 76
2019-01-23 06:00:00 1.7 8 Oeste 21 Oeste 0.2 -- -- 83
2019-01-23 05:00:00 1.8 12 Oeste 29 Oeste 0 -- -- 82
2019-01-23 04:00:00 1.5 14 Oeste 26 Oeste 0.4 -- -- 85
2019-01-23 03:00:00 1.1 9 Oeste 19 Oeste 0.4 -- -- 85
2019-01-23 02:00:00 1.1 10 Oeste 21 Oeste 0.6 -- -- 85
2019-01-23 01:00:00 1.3 12 Oeste 22 Noroeste 0.2 -- -- 84
2019-01-23 00:00:00 1.3 14 Oeste 23 Noroeste 0 -- -- 83
2019-01-22 23:00:00 1 8 Oeste 19 Oeste 0 -- -- 82
2019-01-22 22:00:00 0.8 6 Oeste 18 Oeste 0 -- -- 81
2019-01-22 21:00:00 0.5 8 Oeste 14 Oeste 0 -- -- 84
2019-01-22 20:00:00 0.3 8 Oeste 17 Oeste 0 -- -- 84
2019-01-22 19:00:00 0.5 12 Noroeste 29 Noroeste 0 -- -- 84
2019-01-22 18:00:00 0.8 16 Noroeste 33 Noroeste 0 -- -- 82
2019-01-22 17:00:00 1.1 15 Oeste 35 Noroeste 0 -- -- 82
2019-01-22 16:00:00 0.8 7 Oeste 21 Noroeste 0.4 -- -- 86
2019-01-22 15:00:00 1.1 17 Noroeste 38 Oeste 0.2 -- -- 82
2019-01-22 14:00:00 2.6 14 Oeste 32 Oeste 0 -- -- 78
2019-01-22 13:00:00 3 20 Oeste 36 Oeste 0 -- -- 71
2019-01-22 12:00:00 3 8 Oeste 19 Oeste 0 -- -- 68
2019-01-22 11:00:00 1.6 5 Sur 17 Sudeste 0 -- -- 75
2019-01-22 10:00:00 1.3 7 Sudeste 17 Sudeste 0 -- -- 70
2019-01-22 09:00:00 1.2 6 Sudeste 18 Sudoeste 0 -- -- 70
2019-01-22 08:00:00 0.7 10 Sudoeste 20 Sudoeste 0 -- -- 73
2019-01-22 07:00:00 0.1 9 Sudoeste 19 Sudoeste 0 -- -- 72
2019-01-22 06:00:00 -0.1 13 Noroeste 25 Noroeste 0 -- -- 70
2019-01-22 05:00:00 -0.3 16 Noroeste 31 Oeste 0 -- -- 70
2019-01-22 04:00:00 -0.2 16 Oeste 33 Noroeste 0 -- -- 72
2019-01-22 03:00:00 0.1 20 Noroeste 34 Noroeste 0 -- -- 71
2019-01-22 02:00:00 -0.1 20 Noroeste 33 Noroeste 0 -- -- 73
2019-01-22 01:00:00 -0.3 16 Noroeste 31 Oeste 0 -- -- 73
2019-01-22 00:00:00 -0.1 15 Noroeste 33 Noroeste 0 -- -- 70
2019-01-21 23:00:00 0.2 13 Oeste 31 Oeste 0 -- -- 68
2019-01-21 22:00:00 0.3 7 Noroeste 21 Noroeste 0 -- -- 68
2019-01-21 21:00:00 0.2 8 Oeste 37 Noroeste 0 -- -- 67
2019-01-21 20:00:00 0.4 15 Noroeste 38 Noroeste 0 -- -- 68
2019-01-21 19:00:00 0.6 13 Noroeste 30 Noroeste 0 -- -- 68
2019-01-21 18:00:00 0.9 9 Noroeste 33 Oeste 0 -- -- 65
2019-01-21 17:00:00 1.6 10 Noroeste 34 Noroeste 0 -- -- 64
2019-01-21 16:00:00 1.6 17 Noroeste 32 Noroeste 0 -- -- 63
2019-01-21 15:00:00 2.2 21 Noroeste 43 Noroeste 0 -- -- 64
2019-01-21 14:00:00 2.3 18 Noroeste 48 Noroeste 0 -- -- 66
2019-01-21 13:00:00 2.3 21 Noroeste 46 Noroeste 0 -- -- 68
2019-01-21 12:00:00 1.3 18 Noroeste 40 Noroeste 0 -- -- 75
2019-01-21 11:00:00 1.4 17 Noroeste 41 Norte 0 -- -- 70
2019-01-21 10:00:00 0.9 17 Noroeste 43 Norte 0 -- -- 72
2019-01-21 09:00:00 0.6 17 Norte 41 Norte 0 -- -- 74
2019-01-21 08:00:00 0.9 4 Noroeste 31 Noroeste 0 -- -- 78
2019-01-21 07:00:00 1.3 16 Noroeste 28 Noroeste 0 -- -- 75
2019-01-21 06:00:00 1.2 6 Noroeste 23 Noroeste 0 -- -- 76
2019-01-21 05:00:00 1.1 12 Norte 24 Noroeste 0 -- -- 80
2019-01-21 04:00:00 1.3 9 Noroeste 26 Noroeste 0 -- -- 79
2019-01-21 03:00:00 1.5 19 Noroeste 37 Noroeste 0 -- -- 78
2019-01-21 02:00:00 1.3 12 Noroeste 31 Oeste 0 -- -- 78
2019-01-21 01:00:00 1.4 16 Noroeste 48 Norte 0 -- -- 76
2019-01-21 00:00:00 1.6 21 Noroeste 34 Noroeste 0 -- -- 80
2019-01-20 23:00:00 1.7 18 Noroeste 37 Noroeste 0 -- -- 79
2019-01-20 22:00:00 1.8 16 Noroeste 40 Noroeste 0 -- -- 79
2019-01-20 21:00:00 1.8 18 Noroeste 28 Noroeste 0 -- -- 78
2019-01-20 20:00:00 1.9 17 Noroeste 40 Noroeste 0 -- -- 78
2019-01-20 19:00:00 1.9 12 Noroeste 30 Norte 0 -- -- 78
2019-01-20 18:00:00 2.1 16 Noroeste 40 Noroeste 0.2 -- -- 79
2019-01-20 17:00:00 2.3 18 Noroeste 41 Oeste 0 -- -- 79
2019-01-20 16:00:00 3 23 Noroeste 45 Noroeste 0 -- -- 76
2019-01-20 15:00:00 3.2 16 Noroeste 41 Noroeste 0 -- -- 75
2019-01-20 14:00:00 3.1 19 Noroeste 36 Noroeste 0 -- -- 75
2019-01-20 13:00:00 2.8 14 Noroeste 34 Noroeste 0 -- -- 77
2019-01-20 12:00:00 2.6 9 Noroeste 38 Noroeste 0 -- -- 78
2019-01-20 11:00:00 2.2 11 Noroeste 24 Noroeste 0 -- -- 80
2019-01-20 10:00:00 2.1 13 Noroeste 36 Noroeste 0 -- -- 75
2019-01-20 09:00:00 1.4 6 Norte 34 Noroeste 0.6 -- -- 87
2019-01-20 08:00:00 1.9 10 Norte 32 Norte 0 -- -- 85
2019-01-20 07:00:00 1.9 16 Norte 43 Norte 0.2 -- -- 83
2019-01-20 06:00:00 1.6 5 Noroeste 26 Norte 0.4 -- -- 85
2019-01-20 05:00:00 1.7 17 Noroeste 37 Noroeste 0.2 -- -- 86
2019-01-20 04:00:00 0.5 2 Norte 8 Nordeste 0 -- -- 89
2019-01-20 03:00:00 0.4 0 Calma 3 Norte 0 -- -- 89
2019-01-20 02:00:00 0.5 0 Calma 2 Norte 0 -- -- 87
2019-01-20 01:00:00 0.8 2 Sudeste 11 Sudeste 0.2 -- -- 85
2019-01-20 00:00:00 1 6 Sur 17 Sur 0 -- -- 83
2019-01-19 23:00:00 1.1 7 Sur 21 Sur 0.2 -- -- 84
2019-01-19 22:00:00 0.8 13 Sudoeste 27 Sudeste 0.2 -- -- 85
2019-01-19 21:00:00 0.5 9 Sur 26 Sudoeste 0 -- -- 86
2019-01-19 20:00:00 0.6 6 Sur 30 Sudoeste 0 -- -- 86
2019-01-19 19:00:00 1.1 13 Sur 28 Sur 0 -- -- 83
2019-01-19 18:00:00 1.7 9 Sur 21 Sudoeste 0 -- -- 84
2019-01-19 17:00:00 2.4 6 Sudoeste 28 Sudoeste 0 -- -- 82
2019-01-19 16:00:00 3.1 15 Sudoeste 31 Sudoeste 0 -- -- 77
2019-01-19 15:00:00 2.7 13 Sur 23 Sur 0 -- -- 76
2019-01-19 14:00:00 2.7 8 Sudoeste 29 Sudoeste 0 -- -- 76
2019-01-19 13:00:00 3 18 Sur 33 Sudoeste 0 -- -- 72
2019-01-19 12:00:00 4.6 8 Sur 15 Sur 0 -- -- 63
2019-01-19 11:00:00 1.4 0 Calma 4 Noroeste 0 -- -- 77
2019-01-19 10:00:00 -1.9 0 Calma 3 Este 0 -- -- 86
2019-01-19 09:00:00 -4.1 0 Calma 3 Noroeste 0 -- -- 86
2019-01-19 08:00:00 -3.9 2 Oeste 4 Este 0 -- -- 85
2019-01-19 07:00:00 -3.1 0 Calma 5 Sur 0 -- -- 84
2019-01-19 06:00:00 -2.4 2 Sudoeste 6 Oeste 0 -- -- 83
2019-01-19 05:00:00 -1.9 0 Calma 5 Sur 0 -- -- 82
2019-01-19 04:00:00 0.4 4 Sur 13 Oeste 0 -- -- 77
2019-01-19 03:00:00 1.7 7 Oeste 13 Oeste 0 -- -- 77
2019-01-19 02:00:00 0.7 8 Oeste 20 Oeste 0 -- -- 79
2019-01-19 01:00:00 -1.1 4 Oeste 10 Oeste 0 -- -- 82
2019-01-19 00:00:00 -2.4 2 Sudoeste 5 Sudoeste 0 -- -- 83